createdAt,value
2022-11-22T00:04:46.030Z,92180.31
2022-11-22T00:09:52.762Z,92177.25
2022-11-22T00:14:59.620Z,92167.25
2022-11-22T00:20:09.309Z,92156.58
2022-11-22T00:25:17.399Z,92175.88
2022-11-22T00:30:26.887Z,92147.75
2022-11-22T00:35:34.796Z,92131.05
2022-11-22T00:40:42.181Z,92128.91
2022-11-22T00:45:48.934Z,92133.61
2022-11-22T00:50:56.425Z,92135.31
2022-11-22T00:56:03.399Z,92131.05
2022-11-22T01:01:11.760Z,92149.95
2022-11-22T01:06:20.853Z,92143.77
2022-11-22T01:11:28.251Z,92155.20
2022-11-22T01:16:35.419Z,91967.47
2022-11-22T01:21:42.589Z,92148.25
2022-11-22T01:26:50.086Z,92151.02
2022-11-22T01:31:56.992Z,92141.63
2022-11-22T01:37:04.975Z,92141.03
2022-11-22T01:42:14.131Z,92147.84
2022-11-22T01:47:26.988Z,92147.16
2022-11-22T01:52:37.020Z,92146.52
2022-11-22T01:57:46.623Z,92141.02
2022-11-22T02:03:02.505Z,92135.67
2022-11-22T02:08:13.953Z,92143.70
2022-11-22T02:13:24.658Z,92145.75
2022-11-22T02:18:31.751Z,92136.30
2022-11-22T02:23:48.718Z,92139.56
2022-11-22T02:28:58.768Z,92128.05
2022-11-22T02:34:05.847Z,92123.61
2022-11-22T02:39:15.898Z,91939.21
2022-11-22T02:44:23.627Z,92108.91
2022-11-22T02:49:30.499Z,92113.89
2022-11-22T02:54:37.251Z,92119.81
2022-11-22T02:59:46.455Z,92112.80
2022-11-22T03:04:53.274Z,92098.96
2022-11-22T03:09:59.952Z,92099.08
2022-11-22T03:15:08.463Z,92087.09
2022-11-22T03:20:15.911Z,92082.70
2022-11-22T03:25:22.922Z,92078.25
2022-11-22T03:30:29.676Z,91914.67
2022-11-22T03:35:36.833Z,92061.92
2022-11-22T03:40:46.582Z,92066.24
2022-11-22T03:45:53.351Z,92059.92
2022-11-22T03:51:07.645Z,92053.56
2022-11-22T03:56:14.969Z,92054.55
2022-11-22T04:01:21.776Z,92015.65
2022-11-22T04:06:28.510Z,92012.39
2022-11-22T04:11:36.903Z,92011.84
2022-11-22T04:16:43.724Z,92027.01
2022-11-22T04:21:50.525Z,92030.61
2022-11-22T04:26:58.018Z,92032.51
2022-11-22T04:32:23.112Z,92023.09
2022-11-22T04:37:29.841Z,92031.19
2022-11-22T04:42:54.262Z,92031.47
2022-11-22T04:48:01.023Z,92032.63
2022-11-22T04:53:07.701Z,92030.17
2022-11-22T04:58:14.722Z,92032.48
2022-11-22T05:03:21.732Z,92013.41
2022-11-22T05:08:28.337Z,92006.03
2022-11-22T05:13:46.416Z,92008.72
2022-11-22T05:19:00.052Z,92000.05
2022-11-22T05:24:07.442Z,91994.76
2022-11-22T05:29:15.126Z,91993.62
2022-11-22T05:34:22.548Z,91991.59
2022-11-22T05:39:29.745Z,91996.36
2022-11-22T05:44:36.792Z,91987.34
2022-11-22T05:49:45.173Z,91988.79
2022-11-22T05:54:51.880Z,91989.03
2022-11-22T05:59:58.563Z,91999.77
2022-11-22T06:05:06.549Z,91992.65
2022-11-22T06:10:13.325Z,92009.17
2022-11-22T06:15:20.057Z,92004.78
2022-11-22T06:20:26.781Z,92005.73
2022-11-22T06:25:33.825Z,92006.61
2022-11-22T06:30:40.457Z,92006.48
2022-11-22T06:35:47.503Z,92007.66
2022-11-22T06:40:54.242Z,92009.66
2022-11-22T06:46:02.927Z,91998.41
2022-11-22T06:51:14.089Z,91995.43
2022-11-22T06:56:25.680Z,92002.64
2022-11-22T07:01:36.473Z,91859.39
2022-11-22T07:06:47.089Z,92018.69
2022-11-22T07:11:54.574Z,92020.09
2022-11-22T07:17:01.766Z,92024.66
2022-11-22T07:22:09.182Z,92030.88
2022-11-22T07:27:16.208Z,92029.78
2022-11-22T07:32:23.434Z,92027.09
2022-11-22T07:37:34.803Z,92021.43
2022-11-22T07:42:41.775Z,92004.97
2022-11-22T07:47:48.747Z,91992.94
2022-11-22T07:53:00.772Z,91998.66
2022-11-22T07:58:07.971Z,91998.80
2022-11-22T08:03:17.791Z,91999.02
2022-11-22T08:08:24.121Z,91800.06
2022-11-22T08:13:32.131Z,92003.58
2022-11-22T08:18:40.213Z,92003.83
2022-11-22T08:23:49.157Z,92044.20
2022-11-22T08:28:56.720Z,92002.78
2022-11-22T08:34:04.229Z,92013.53
2022-11-22T08:39:12.011Z,92019.30
2022-11-22T08:44:18.984Z,92021.15
2022-11-22T08:49:27.708Z,92023.76
2022-11-22T08:54:37.962Z,91908.38
2022-11-22T08:59:44.409Z,92023.74
2022-11-22T09:04:54.096Z,92026.34
2022-11-22T09:10:01.822Z,92024.53
2022-11-22T09:15:10.670Z,92025.81
2022-11-22T09:20:18.043Z,92033.95
2022-11-22T09:25:25.674Z,92032.62
2022-11-22T09:30:33.482Z,92032.59
2022-11-22T09:35:40.888Z,92021.11
2022-11-22T09:40:50.742Z,92028.70
2022-11-22T09:46:21.797Z,92026.91
2022-11-22T09:51:33.310Z,92021.66
2022-11-22T09:56:43.283Z,92006.73
2022-11-22T10:02:17.580Z,92008.30
2022-11-22T10:07:19.231Z,92002.00
2022-11-22T10:12:39.365Z,91986.81
2022-11-22T10:18:03.850Z,91983.42
2022-11-22T10:23:23.519Z,91972.63
2022-11-22T10:29:05.108Z,91950.67
2022-11-22T10:34:27.849Z,91932.09
2022-11-22T10:40:06.570Z,91915.06
2022-11-22T10:46:06.177Z,91891.46
2022-11-22T10:51:38.177Z,91883.81
2022-11-22T10:56:59.208Z,91858.59
2022-11-22T11:02:38.984Z,91841.83
2022-11-22T11:08:03.959Z,91828.55
2022-11-22T11:13:25.493Z,91816.94
2022-11-22T11:18:57.460Z,91818.65
2022-11-22T11:24:05.393Z,91811.96
2022-11-22T11:29:26.914Z,91811.58
2022-11-22T11:34:35.086Z,91803.91
2022-11-22T11:39:46.780Z,91807.08
2022-11-22T11:44:54.644Z,91817.44
2022-11-22T11:50:04.934Z,91829.96
2022-11-22T11:55:16.520Z,91837.81
2022-11-22T12:00:33.613Z,91848.22
2022-11-22T12:05:41.824Z,91845.59
2022-11-22T12:11:02.943Z,91848.05
2022-11-22T12:16:34.736Z,91846.51
2022-11-22T12:22:00.946Z,91833.25
2022-11-22T12:27:09.391Z,91836.31
2022-11-22T12:32:25.740Z,91846.98
2022-11-22T12:37:37.181Z,91841.53
2022-11-22T12:42:59.858Z,91853.68
2022-11-22T12:48:16.707Z,91863.77
2022-11-22T12:53:40.255Z,91870.64
2022-11-22T12:59:10.467Z,91876.20
2022-11-22T13:04:31.260Z,91884.79
2022-11-22T13:09:44.570Z,91883.84
2022-11-22T13:14:55.567Z,91897.34
2022-11-22T13:20:18.521Z,91907.55
2022-11-22T13:25:44.491Z,91913.00
2022-11-22T13:31:07.490Z,91920.34
2022-11-22T13:36:38.852Z,91919.65
2022-11-22T13:41:55.462Z,91930.73
2022-11-22T13:47:26.946Z,91926.88
2022-11-22T13:52:54.741Z,91941.52
2022-11-22T13:58:14.881Z,91946.50
2022-11-22T14:03:40.705Z,91950.16
2022-11-22T14:08:49.292Z,91949.61
2022-11-22T14:14:13.445Z,91941.22
2022-11-22T14:19:59.050Z,91937.27
2022-11-22T14:25:22.625Z,91932.06
2022-11-22T14:30:52.365Z,91917.56
2022-11-22T14:36:15.370Z,91913.27
2022-11-22T14:41:44.135Z,91907.06
2022-11-22T14:47:10.809Z,91901.56
2022-11-22T14:52:29.645Z,91900.05
2022-11-22T14:57:39.211Z,91902.93
2022-11-22T15:03:34.034Z,91901.66
2022-11-22T15:09:46.955Z,91904.28
2022-11-22T15:14:38.508Z,91898.00
2022-11-22T16:02:18.247Z,91918.03
2022-11-22T16:07:45.672Z,91924.31
2022-11-22T16:12:53.539Z,91928.53
2022-11-22T16:18:13.545Z,91918.91
2022-11-22T16:23:24.843Z,91924.93
2022-11-22T16:28:37.064Z,91927.84
2022-11-22T16:33:44.472Z,91936.44
2022-11-22T16:38:52.395Z,91944.64
2022-11-22T16:44:09.717Z,91944.35
2022-11-22T16:49:24.305Z,91942.70
2022-11-22T16:54:33.509Z,91942.13
2022-11-22T16:59:40.782Z,91945.22
2022-11-22T17:04:49.815Z,91948.88
2022-11-22T17:09:56.634Z,91954.31
2022-11-22T17:15:05.400Z,91948.20
2022-11-22T17:20:13.131Z,91947.66
2022-11-22T17:25:20.431Z,91944.61
2022-11-22T17:30:28.107Z,91941.17
2022-11-22T17:35:37.241Z,91936.44
2022-11-22T17:40:45.483Z,91927.36
2022-11-22T17:45:52.263Z,91922.93
2022-11-22T17:50:59.310Z,91876.66
2022-11-22T17:56:11.376Z,91918.35
2022-11-22T18:01:19.204Z,91924.84
2022-11-22T18:06:27.566Z,91914.70
2022-11-22T18:11:34.316Z,91908.72
2022-11-22T18:16:41.398Z,91905.84
2022-11-22T18:21:48.144Z,91907.21
2022-11-22T18:26:55.213Z,91897.74
2022-11-22T18:32:03.444Z,91894.30
2022-11-22T18:37:11.298Z,91890.91
2022-11-22T18:42:18.902Z,91890.16
2022-11-22T18:47:25.847Z,91897.22
2022-11-22T18:52:39.121Z,91893.86
2022-11-22T18:57:47.554Z,91884.97
2022-11-22T19:02:54.790Z,91886.54
2022-11-22T19:08:01.906Z,91880.29
2022-11-22T19:13:09.421Z,91882.86
2022-11-22T19:18:17.144Z,91880.75
2022-11-22T19:23:24.249Z,91881.29
2022-11-22T19:28:32.738Z,91885.75
2022-11-22T19:33:41.839Z,91882.00
2022-11-22T19:38:49.564Z,91891.26
2022-11-22T19:44:00.148Z,91896.75
2022-11-22T19:49:07.857Z,91896.48
2022-11-22T19:54:15.025Z,91894.91
2022-11-22T19:59:22.299Z,91895.17
2022-11-22T20:04:29.380Z,91901.17
2022-11-22T20:09:38.963Z,91889.17
2022-11-22T20:14:45.815Z,91892.32
2022-11-22T20:19:52.538Z,91891.77
2022-11-22T20:25:00.127Z,91884.17
2022-11-22T20:30:09.371Z,91891.80
2022-11-22T20:35:16.103Z,91899.86
2022-11-22T20:40:22.871Z,91893.78
2022-11-22T20:45:29.807Z,91896.67
2022-11-22T20:50:36.566Z,91904.58
2022-11-22T20:55:43.537Z,91906.85
2022-11-22T21:00:51.596Z,91912.07
2022-11-22T21:05:58.927Z,91908.16
2022-11-22T21:11:10.417Z,91919.22
2022-11-22T21:16:24.571Z,91925.73
2022-11-22T21:21:35.066Z,91930.22
2022-11-22T21:26:42.246Z,91930.73
2022-11-22T21:31:49.142Z,91934.91
2022-11-22T21:36:56.281Z,91938.31
2022-11-22T21:42:03.221Z,91935.20
2022-11-22T21:47:10.168Z,91936.98
2022-11-22T21:52:17.451Z,91933.59
2022-11-22T21:57:24.533Z,91937.22
2022-11-22T22:02:33.118Z,91933.79
2022-11-22T22:07:56.717Z,91932.80
2022-11-22T22:12:53.633Z,91929.37
2022-11-22T22:18:00.722Z,91935.17
2022-11-22T22:23:08.908Z,91936.21
2022-11-22T22:28:16.510Z,91946.70
2022-11-22T22:33:23.364Z,91950.61
2022-11-22T22:38:31.688Z,91949.81
2022-11-22T22:43:42.404Z,91950.88
2022-11-22T22:48:52.220Z,91950.36
2022-11-22T22:54:01.152Z,91953.49
2022-11-22T22:59:10.018Z,91959.57
2022-11-22T23:04:17.063Z,91962.42
2022-11-22T23:09:23.930Z,91959.28
2022-11-22T23:14:31.721Z,91965.01
2022-11-22T23:19:38.748Z,91969.20
2022-11-22T23:24:46.002Z,91965.03
2022-11-22T23:29:52.806Z,91955.59
2022-11-22T23:34:59.917Z,91961.09
2022-11-22T23:40:08.677Z,91969.22
2022-11-22T23:45:15.526Z,91968.44
2022-11-22T23:50:22.582Z,91956.67
2022-11-22T23:55:29.782Z,91957.99
